sensor_id;sensor_type;location;lat;lon;timestamp;P1;durP1;ratioP1;P2;durP2;ratioP2
57573;SDS011;63722;48.858;21.906;2023-02-12T00:01:36;7.75;;;7.35;;
57573;SDS011;63722;48.858;21.906;2023-02-12T00:04:02;7.65;;;7.25;;
57573;SDS011;63722;48.858;21.906;2023-02-12T00:06:27;8.10;;;7.60;;
57573;SDS011;63722;48.858;21.906;2023-02-12T00:08:54;7.60;;;7.15;;
57573;SDS011;63722;48.858;21.906;2023-02-12T00:11:21;7.22;;;6.85;;
57573;SDS011;63722;48.858;21.906;2023-02-12T00:13:48;8.00;;;7.60;;
57573;SDS011;63722;48.858;21.906;2023-02-12T00:16:15;8.05;;;7.55;;
57573;SDS011;63722;48.858;21.906;2023-02-12T00:18:44;7.57;;;7.18;;
57573;SDS011;63722;48.858;21.906;2023-02-12T00:21:10;7.90;;;7.50;;
57573;SDS011;63722;48.858;21.906;2023-02-12T00:23:37;7.95;;;7.50;;
57573;SDS011;63722;48.858;21.906;2023-02-12T00:26:15;7.60;;;7.20;;
57573;SDS011;63722;48.858;21.906;2023-02-12T00:28:42;7.90;;;7.50;;
57573;SDS011;63722;48.858;21.906;2023-02-12T00:31:08;7.90;;;7.40;;
57573;SDS011;63722;48.858;21.906;2023-02-12T00:33:36;8.07;;;7.68;;
57573;SDS011;63722;48.858;21.906;2023-02-12T00:36:01;8.18;;;7.68;;
57573;SDS011;63722;48.858;21.906;2023-02-12T00:38:28;7.65;;;7.25;;
57573;SDS011;63722;48.858;21.906;2023-02-12T00:40:53;8.48;;;7.97;;
57573;SDS011;63722;48.858;21.906;2023-02-12T00:43:19;8.48;;;7.88;;
57573;SDS011;63722;48.858;21.906;2023-02-12T00:45:44;7.88;;;7.47;;
57573;SDS011;63722;48.858;21.906;2023-02-12T00:48:11;7.95;;;7.35;;
57573;SDS011;63722;48.858;21.906;2023-02-12T00:50:36;8.23;;;7.65;;
57573;SDS011;63722;48.858;21.906;2023-02-12T00:53:02;8.00;;;7.60;;
57573;SDS011;63722;48.858;21.906;2023-02-12T00:55:27;7.82;;;7.43;;
57573;SDS011;63722;48.858;21.906;2023-02-12T00:57:53;7.88;;;7.47;;
57573;SDS011;63722;48.858;21.906;2023-02-12T01:00:18;8.10;;;7.60;;
57573;SDS011;63722;48.858;21.906;2023-02-12T01:02:44;8.20;;;7.70;;
57573;SDS011;63722;48.858;21.906;2023-02-12T01:05:09;8.15;;;7.65;;
57573;SDS011;63722;48.858;21.906;2023-02-12T01:07:35;7.03;;;6.63;;
57573;SDS011;63722;48.858;21.906;2023-02-12T01:10:02;7.65;;;7.25;;
57573;SDS011;63722;48.858;21.906;2023-02-12T01:12:28;7.90;;;7.43;;
57573;SDS011;63722;48.858;21.906;2023-02-12T01:14:53;7.75;;;7.35;;
57573;SDS011;63722;48.858;21.906;2023-02-12T01:17:19;9.00;;;8.40;;
57573;SDS011;63722;48.858;21.906;2023-02-12T01:19:44;7.82;;;7.43;;
57573;SDS011;63722;48.858;21.906;2023-02-12T01:22:10;8.07;;;7.68;;
57573;SDS011;63722;48.858;21.906;2023-02-12T01:24:35;7.80;;;7.32;;
57573;SDS011;63722;48.858;21.906;2023-02-12T01:27:00;7.60;;;7.20;;
57573;SDS011;63722;48.858;21.906;2023-02-12T01:29:26;7.95;;;7.45;;
57573;SDS011;63722;48.858;21.906;2023-02-12T01:31:51;8.15;;;7.55;;
57573;SDS011;63722;48.858;21.906;2023-02-12T01:34:16;7.45;;;7.05;;
57573;SDS011;63722;48.858;21.906;2023-02-12T01:36:42;8.02;;;7.53;;
57573;SDS011;63722;48.858;21.906;2023-02-12T01:39:09;7.40;;;6.97;;
57573;SDS011;63722;48.858;21.906;2023-02-12T01:41:37;7.80;;;7.40;;
57573;SDS011;63722;48.858;21.906;2023-02-12T01:44:05;7.63;;;7.13;;
57573;SDS011;63722;48.858;21.906;2023-02-12T01:46:31;7.88;;;7.47;;
57573;SDS011;63722;48.858;21.906;2023-02-12T01:48:56;7.93;;;7.47;;
57573;SDS011;63722;48.858;21.906;2023-02-12T01:51:22;8.10;;;7.60;;
57573;SDS011;63722;48.858;21.906;2023-02-12T01:53:50;7.28;;;6.78;;
57573;SDS011;63722;48.858;21.906;2023-02-12T01:56:19;7.38;;;6.97;;
57573;SDS011;63722;48.858;21.906;2023-02-12T01:58:45;8.07;;;7.60;;
57573;SDS011;63722;48.858;21.906;2023-02-12T02:01:16;7.30;;;6.97;;
57573;SDS011;63722;48.858;21.906;2023-02-12T02:03:46;7.72;;;7.13;;
57573;SDS011;63722;48.858;21.906;2023-02-12T02:06:17;7.70;;;7.30;;
57573;SDS011;63722;48.858;21.906;2023-02-12T02:08:45;7.60;;;7.20;;
57573;SDS011;63722;48.858;21.906;2023-02-12T02:11:11;8.02;;;7.63;;
57573;SDS011;63722;48.858;21.906;2023-02-12T02:13:55;7.47;;;6.97;;
57573;SDS011;63722;48.858;21.906;2023-02-12T02:16:41;7.63;;;7.15;;
57573;SDS011;63722;48.858;21.906;2023-02-12T02:22:25;7.72;;;7.32;;
57573;SDS011;63722;48.858;21.906;2023-02-12T02:28:10;7.50;;;7.10;;
57573;SDS011;63722;48.858;21.906;2023-02-12T02:36:11;7.60;;;7.20;;
57573;SDS011;63722;48.858;21.906;2023-02-12T02:41:25;7.25;;;6.88;;
57573;SDS011;63722;48.858;21.906;2023-02-12T02:46:28;7.72;;;7.22;;
57573;SDS011;63722;48.858;21.906;2023-02-12T02:51:31;6.97;;;6.68;;
57573;SDS011;63722;48.858;21.906;2023-02-12T02:56:42;7.72;;;7.22;;
57573;SDS011;63722;48.858;21.906;2023-02-12T02:59:12;7.40;;;7.00;;
57573;SDS011;63722;48.858;21.906;2023-02-12T03:01:56;7.80;;;7.40;;
57573;SDS011;63722;48.858;21.906;2023-02-12T03:09:43;7.00;;;6.70;;
57573;SDS011;63722;48.858;21.906;2023-02-12T03:12:25;8.52;;;7.70;;
57573;SDS011;63722;48.858;21.906;2023-02-12T03:15:08;7.80;;;7.38;;
57573;SDS011;63722;48.858;21.906;2023-02-12T03:17:43;7.43;;;7.03;;
57573;SDS011;63722;48.858;21.906;2023-02-12T03:20:16;7.20;;;6.80;;
57573;SDS011;63722;48.858;21.906;2023-02-12T03:22:49;7.47;;;7.03;;
57573;SDS011;63722;48.858;21.906;2023-02-12T03:25:25;7.60;;;7.20;;
57573;SDS011;63722;48.858;21.906;2023-02-12T03:28:17;7.60;;;7.20;;
57573;SDS011;63722;48.858;21.906;2023-02-12T03:34:12;7.78;;;7.28;;
57573;SDS011;63722;48.858;21.906;2023-02-12T03:36:51;7.38;;;6.97;;
57573;SDS011;63722;48.858;21.906;2023-02-12T03:42:15;7.30;;;6.90;;
57573;SDS011;63722;48.858;21.906;2023-02-12T03:53:37;7.38;;;6.95;;
57573;SDS011;63722;48.858;21.906;2023-02-12T03:56:08;7.35;;;6.82;;
57573;SDS011;63722;48.858;21.906;2023-02-12T03:58:38;7.35;;;6.95;;
57573;SDS011;63722;48.858;21.906;2023-02-12T04:01:06;7.10;;;6.80;;
57573;SDS011;63722;48.858;21.906;2023-02-12T04:03:32;7.43;;;7.03;;
57573;SDS011;63722;48.858;21.906;2023-02-12T04:05:58;7.15;;;6.75;;
57573;SDS011;63722;48.858;21.906;2023-02-12T04:08:25;7.55;;;7.07;;
57573;SDS011;63722;48.858;21.906;2023-02-12T04:11:04;7.57;;;7.18;;
57573;SDS011;63722;48.858;21.906;2023-02-12T04:19:04;7.00;;;6.60;;
57573;SDS011;63722;48.858;21.906;2023-02-12T04:26:48;7.13;;;6.72;;
57573;SDS011;63722;48.858;21.906;2023-02-12T04:34:52;7.15;;;6.72;;
57573;SDS011;63722;48.858;21.906;2023-02-12T04:40:11;7.10;;;6.80;;
57573;SDS011;63722;48.858;21.906;2023-02-12T04:42:48;7.70;;;7.18;;
57573;SDS011;63722;48.858;21.906;2023-02-12T04:45:34;7.55;;;7.15;;
57573;SDS011;63722;48.858;21.906;2023-02-12T04:48:00;6.78;;;6.38;;
57573;SDS011;63722;48.858;21.906;2023-02-12T04:50:26;7.50;;;7.10;;
57573;SDS011;63722;48.858;21.906;2023-02-12T04:53:01;6.80;;;6.40;;
57573;SDS011;63722;48.858;21.906;2023-02-12T04:55:27;6.65;;;6.30;;
57573;SDS011;63722;48.858;21.906;2023-02-12T04:57:52;6.75;;;6.35;;
57573;SDS011;63722;48.858;21.906;2023-02-12T05:00:17;7.47;;;7.07;;
57573;SDS011;63722;48.858;21.906;2023-02-12T05:02:43;7.15;;;6.85;;
57573;SDS011;63722;48.858;21.906;2023-02-12T05:05:08;7.25;;;6.85;;
57573;SDS011;63722;48.858;21.906;2023-02-12T05:07:34;7.65;;;7.25;;
57573;SDS011;63722;48.858;21.906;2023-02-12T05:09:59;7.68;;;7.28;;
57573;SDS011;63722;48.858;21.906;2023-02-12T05:12:25;7.55;;;7.05;;
57573;SDS011;63722;48.858;21.906;2023-02-12T05:14:50;6.63;;;6.28;;
57573;SDS011;63722;48.858;21.906;2023-02-12T05:17:15;7.20;;;6.80;;
57573;SDS011;63722;48.858;21.906;2023-02-12T05:19:41;7.13;;;6.72;;
57573;SDS011;63722;48.858;21.906;2023-02-12T05:22:06;7.03;;;6.72;;
57573;SDS011;63722;48.858;21.906;2023-02-12T05:24:31;7.20;;;6.80;;
57573;SDS011;63722;48.858;21.906;2023-02-12T05:26:57;6.97;;;6.57;;
57573;SDS011;63722;48.858;21.906;2023-02-12T05:29:22;6.97;;;6.57;;
57573;SDS011;63722;48.858;21.906;2023-02-12T05:31:47;7.20;;;6.70;;
57573;SDS011;63722;48.858;21.906;2023-02-12T05:34:13;7.47;;;6.85;;
57573;SDS011;63722;48.858;21.906;2023-02-12T05:36:39;7.05;;;6.65;;
57573;SDS011;63722;48.858;21.906;2023-02-12T05:39:05;7.55;;;7.15;;
57573;SDS011;63722;48.858;21.906;2023-02-12T05:41:31;7.75;;;7.25;;
57573;SDS011;63722;48.858;21.906;2023-02-12T05:43:59;7.13;;;6.72;;
57573;SDS011;63722;48.858;21.906;2023-02-12T05:46:27;7.35;;;6.95;;
57573;SDS011;63722;48.858;21.906;2023-02-12T05:48:53;6.88;;;6.57;;
57573;SDS011;63722;48.858;21.906;2023-02-12T05:51:20;7.25;;;6.95;;
57573;SDS011;63722;48.858;21.906;2023-02-12T05:53:47;7.10;;;6.70;;
57573;SDS011;63722;48.858;21.906;2023-02-12T05:58:45;6.70;;;6.30;;
57573;SDS011;63722;48.858;21.906;2023-02-12T06:01:17;7.18;;;6.78;;
57573;SDS011;63722;48.858;21.906;2023-02-12T06:03:53;7.43;;;7.03;;
57573;SDS011;63722;48.858;21.906;2023-02-12T06:06:19;6.78;;;6.38;;
57573;SDS011;63722;48.858;21.906;2023-02-12T06:08:47;7.30;;;6.90;;
57573;SDS011;63722;48.858;21.906;2023-02-12T06:11:14;7.57;;;7.18;;
57573;SDS011;63722;48.858;21.906;2023-02-12T06:13:41;6.88;;;6.57;;
57573;SDS011;63722;48.858;21.906;2023-02-12T06:16:06;6.95;;;6.47;;
57573;SDS011;63722;48.858;21.906;2023-02-12T06:18:40;7.20;;;6.80;;
57573;SDS011;63722;48.858;21.906;2023-02-12T06:21:05;6.85;;;6.53;;
57573;SDS011;63722;48.858;21.906;2023-02-12T06:23:30;7.13;;;6.82;;
57573;SDS011;63722;48.858;21.906;2023-02-12T06:25:56;7.55;;;6.97;;
57573;SDS011;63722;48.858;21.906;2023-02-12T06:28:22;7.13;;;6.72;;
57573;SDS011;63722;48.858;21.906;2023-02-12T06:30:47;7.18;;;6.68;;
57573;SDS011;63722;48.858;21.906;2023-02-12T06:33:12;7.22;;;6.80;;
57573;SDS011;63722;48.858;21.906;2023-02-12T06:35:38;7.07;;;6.68;;
57573;SDS011;63722;48.858;21.906;2023-02-12T06:38:03;6.55;;;6.25;;
57573;SDS011;63722;48.858;21.906;2023-02-12T06:40:29;7.35;;;6.95;;
57573;SDS011;63722;48.858;21.906;2023-02-12T06:42:54;7.55;;;7.15;;
57573;SDS011;63722;48.858;21.906;2023-02-12T06:45:20;6.63;;;6.32;;
57573;SDS011;63722;48.858;21.906;2023-02-12T06:47:48;7.00;;;6.70;;
57573;SDS011;63722;48.858;21.906;2023-02-12T06:50:14;6.70;;;6.20;;
57573;SDS011;63722;48.858;21.906;2023-02-12T06:52:39;7.20;;;6.70;;
57573;SDS011;63722;48.858;21.906;2023-02-12T06:55:05;7.05;;;6.65;;
57573;SDS011;63722;48.858;21.906;2023-02-12T06:57:31;7.22;;;6.82;;
57573;SDS011;63722;48.858;21.906;2023-02-12T06:59:56;7.47;;;7.07;;
57573;SDS011;63722;48.858;21.906;2023-02-12T07:02:21;6.80;;;6.45;;
57573;SDS011;63722;48.858;21.906;2023-02-12T07:04:47;6.95;;;6.50;;
57573;SDS011;63722;48.858;21.906;2023-02-12T07:07:12;7.10;;;6.60;;
57573;SDS011;63722;48.858;21.906;2023-02-12T07:09:38;6.25;;;5.95;;
57573;SDS011;63722;48.858;21.906;2023-02-12T07:12:03;6.70;;;6.40;;
57573;SDS011;63722;48.858;21.906;2023-02-12T07:14:29;6.55;;;6.25;;
57573;SDS011;63722;48.858;21.906;2023-02-12T07:16:54;6.80;;;6.43;;
57573;SDS011;63722;48.858;21.906;2023-02-12T07:19:20;6.78;;;6.47;;
57573;SDS011;63722;48.858;21.906;2023-02-12T07:21:45;7.50;;;7.10;;
57573;SDS011;63722;48.858;21.906;2023-02-12T07:24:12;6.97;;;6.63;;
57573;SDS011;63722;48.858;21.906;2023-02-12T07:26:37;7.28;;;6.88;;
57573;SDS011;63722;48.858;21.906;2023-02-12T07:29:03;6.82;;;6.53;;
57573;SDS011;63722;48.858;21.906;2023-02-12T07:31:29;6.90;;;6.60;;
57573;SDS011;63722;48.858;21.906;2023-02-12T07:33:55;6.60;;;6.30;;
57573;SDS011;63722;48.858;21.906;2023-02-12T07:36:22;6.57;;;6.20;;
57573;SDS011;63722;48.858;21.906;2023-02-12T07:38:49;6.93;;;6.55;;
57573;SDS011;63722;48.858;21.906;2023-02-12T07:41:36;6.90;;;6.50;;
57573;SDS011;63722;48.858;21.906;2023-02-12T07:44:01;6.63;;;6.15;;
57573;SDS011;63722;48.858;21.906;2023-02-12T07:46:32;6.93;;;6.43;;
57573;SDS011;63722;48.858;21.906;2023-02-12T07:49:00;6.85;;;6.50;;
57573;SDS011;63722;48.858;21.906;2023-02-12T07:51:28;6.97;;;6.60;;
57573;SDS011;63722;48.858;21.906;2023-02-12T07:53:54;6.97;;;6.60;;
57573;SDS011;63722;48.858;21.906;2023-02-12T07:56:21;7.38;;;6.93;;
57573;SDS011;63722;48.858;21.906;2023-02-12T07:58:48;7.00;;;6.60;;
57573;SDS011;63722;48.858;21.906;2023-02-12T08:03:42;7.00;;;6.60;;
57573;SDS011;63722;48.858;21.906;2023-02-12T08:06:09;6.90;;;6.53;;
57573;SDS011;63722;48.858;21.906;2023-02-12T08:08:56;7.18;;;6.78;;
57573;SDS011;63722;48.858;21.906;2023-02-12T08:11:23;6.78;;;6.45;;
57573;SDS011;63722;48.858;21.906;2023-02-12T08:13:50;7.25;;;6.85;;
57573;SDS011;63722;48.858;21.906;2023-02-12T08:16:17;6.47;;;6.18;;
57573;SDS011;63722;48.858;21.906;2023-02-12T08:18:45;6.55;;;6.25;;
57573;SDS011;63722;48.858;21.906;2023-02-12T08:21:15;6.28;;;5.97;;
57573;SDS011;63722;48.858;21.906;2023-02-12T08:23:42;6.63;;;6.32;;
57573;SDS011;63722;48.858;21.906;2023-02-12T08:26:18;7.53;;;7.13;;
57573;SDS011;63722;48.858;21.906;2023-02-12T08:28:49;6.68;;;6.35;;
57573;SDS011;63722;48.858;21.906;2023-02-12T08:31:18;6.57;;;6.23;;
57573;SDS011;63722;48.858;21.906;2023-02-12T08:33:46;7.00;;;6.60;;
57573;SDS011;63722;48.858;21.906;2023-02-12T08:36:13;7.38;;;6.97;;
57573;SDS011;63722;48.858;21.906;2023-02-12T08:38:41;6.65;;;6.35;;
57573;SDS011;63722;48.858;21.906;2023-02-12T08:41:11;7.43;;;6.82;;
57573;SDS011;63722;48.858;21.906;2023-02-12T08:43:40;7.45;;;7.05;;
57573;SDS011;63722;48.858;21.906;2023-02-12T08:46:07;7.28;;;6.78;;
57573;SDS011;63722;48.858;21.906;2023-02-12T08:48:34;6.60;;;6.30;;
57573;SDS011;63722;48.858;21.906;2023-02-12T08:51:03;6.78;;;6.47;;
57573;SDS011;63722;48.858;21.906;2023-02-12T08:53:30;6.72;;;6.43;;
57573;SDS011;63722;48.858;21.906;2023-02-12T08:55:55;6.90;;;6.30;;
57573;SDS011;63722;48.858;21.906;2023-02-12T08:58:21;7.03;;;6.63;;
57573;SDS011;63722;48.858;21.906;2023-02-12T09:00:46;6.18;;;5.88;;
57573;SDS011;63722;48.858;21.906;2023-02-12T09:03:11;7.07;;;6.68;;
57573;SDS011;63722;48.858;21.906;2023-02-12T09:05:37;6.55;;;6.25;;
57573;SDS011;63722;48.858;21.906;2023-02-12T09:08:04;6.88;;;6.57;;
57573;SDS011;63722;48.858;21.906;2023-02-12T09:10:29;6.72;;;6.35;;
57573;SDS011;63722;48.858;21.906;2023-02-12T09:12:55;7.15;;;6.75;;
57573;SDS011;63722;48.858;21.906;2023-02-12T09:15:20;6.82;;;6.43;;
57573;SDS011;63722;48.858;21.906;2023-02-12T09:17:46;7.18;;;6.70;;
57573;SDS011;63722;48.858;21.906;2023-02-12T09:20:11;6.70;;;6.20;;
57573;SDS011;63722;48.858;21.906;2023-02-12T09:22:37;6.85;;;6.45;;
57573;SDS011;63722;48.858;21.906;2023-02-12T09:25:03;6.32;;;6.03;;
57573;SDS011;63722;48.858;21.906;2023-02-12T09:27:29;6.72;;;6.32;;
57573;SDS011;63722;48.858;21.906;2023-02-12T09:29:55;6.55;;;6.15;;
57573;SDS011;63722;48.858;21.906;2023-02-12T09:32:20;6.82;;;6.43;;
57573;SDS011;63722;48.858;21.906;2023-02-12T09:34:46;6.40;;;6.10;;
57573;SDS011;63722;48.858;21.906;2023-02-12T09:37:11;6.15;;;5.85;;
57573;SDS011;63722;48.858;21.906;2023-02-12T09:39:37;6.28;;;5.97;;
57573;SDS011;63722;48.858;21.906;2023-02-12T09:47:51;6.15;;;5.75;;
57573;SDS011;63722;48.858;21.906;2023-02-12T09:50:53;6.47;;;6.18;;
57573;SDS011;63722;48.858;21.906;2023-02-12T09:53:22;6.97;;;6.57;;
57573;SDS011;63722;48.858;21.906;2023-02-12T09:55:52;6.35;;;6.05;;
57573;SDS011;63722;48.858;21.906;2023-02-12T09:58:32;6.35;;;6.05;;
57573;SDS011;63722;48.858;21.906;2023-02-12T10:01:09;6.47;;;6.18;;
57573;SDS011;63722;48.858;21.906;2023-02-12T10:03:36;6.40;;;6.00;;
57573;SDS011;63722;48.858;21.906;2023-02-12T10:06:06;6.68;;;6.35;;
57573;SDS011;63722;48.858;21.906;2023-02-12T10:11:18;7.05;;;6.65;;
57573;SDS011;63722;48.858;21.906;2023-02-12T10:14:08;6.25;;;5.95;;
57573;SDS011;63722;48.858;21.906;2023-02-12T10:27:56;6.60;;;6.30;;
57573;SDS011;63722;48.858;21.906;2023-02-12T10:33:16;6.38;;;6.00;;
57573;SDS011;63722;48.858;21.906;2023-02-12T10:35:48;5.57;;;5.38;;
57573;SDS011;63722;48.858;21.906;2023-02-12T10:38:20;5.93;;;5.63;;
57573;SDS011;63722;48.858;21.906;2023-02-12T10:40:50;5.88;;;5.57;;
57573;SDS011;63722;48.858;21.906;2023-02-12T10:43:18;5.97;;;5.68;;
57573;SDS011;63722;48.858;21.906;2023-02-12T10:45:44;5.97;;;5.68;;
57573;SDS011;63722;48.858;21.906;2023-02-12T10:48:13;6.13;;;5.82;;
57573;SDS011;63722;48.858;21.906;2023-02-12T10:50:49;6.30;;;6.00;;
57573;SDS011;63722;48.858;21.906;2023-02-12T10:53:39;6.18;;;5.88;;
57573;SDS011;63722;48.858;21.906;2023-02-12T10:56:11;5.80;;;5.50;;
57573;SDS011;63722;48.858;21.906;2023-02-12T10:58:38;5.70;;;5.40;;
57573;SDS011;63722;48.858;21.906;2023-02-12T11:01:05;5.38;;;5.15;;
57573;SDS011;63722;48.858;21.906;2023-02-12T11:04:00;5.88;;;5.57;;
57573;SDS011;63722;48.858;21.906;2023-02-12T11:06:55;6.03;;;5.72;;
57573;SDS011;63722;48.858;21.906;2023-02-12T11:09:30;5.97;;;5.68;;
57573;SDS011;63722;48.858;21.906;2023-02-12T11:12:00;5.53;;;5.22;;
57573;SDS011;63722;48.858;21.906;2023-02-12T11:14:27;5.95;;;5.55;;
57573;SDS011;63722;48.858;21.906;2023-02-12T11:16:55;5.72;;;5.32;;
57573;SDS011;63722;48.858;21.906;2023-02-12T11:19:27;5.40;;;5.10;;
57573;SDS011;63722;48.858;21.906;2023-02-12T11:22:09;5.32;;;5.05;;
57573;SDS011;63722;48.858;21.906;2023-02-12T11:24:38;5.85;;;5.55;;
57573;SDS011;63722;48.858;21.906;2023-02-12T11:32:44;5.45;;;5.15;;
57573;SDS011;63722;48.858;21.906;2023-02-12T11:37:49;5.68;;;5.38;;
57573;SDS011;63722;48.858;21.906;2023-02-12T11:40:26;5.30;;;4.97;;
57573;SDS011;63722;48.858;21.906;2023-02-12T11:42:57;5.60;;;5.30;;
57573;SDS011;63722;48.858;21.906;2023-02-12T11:45:32;5.40;;;5.13;;
57573;SDS011;63722;48.858;21.906;2023-02-12T11:48:11;5.95;;;5.55;;
57573;SDS011;63722;48.858;21.906;2023-02-12T11:50:52;5.72;;;5.43;;
57573;SDS011;63722;48.858;21.906;2023-02-12T11:53:24;5.90;;;5.60;;
57573;SDS011;63722;48.858;21.906;2023-02-12T11:55:56;5.60;;;5.30;;
57573;SDS011;63722;48.858;21.906;2023-02-12T11:58:24;5.15;;;4.85;;
57573;SDS011;63722;48.858;21.906;2023-02-12T12:06:15;5.30;;;5.00;;
57573;SDS011;63722;48.858;21.906;2023-02-12T12:14:36;5.75;;;5.45;;
57573;SDS011;63722;48.858;21.906;2023-02-12T12:17:26;5.20;;;4.93;;
57573;SDS011;63722;48.858;21.906;2023-02-12T12:20:24;4.72;;;4.53;;
57573;SDS011;63722;48.858;21.906;2023-02-12T12:22:57;5.43;;;5.20;;
57573;SDS011;63722;48.858;21.906;2023-02-12T12:25:28;4.82;;;4.63;;
57573;SDS011;63722;48.858;21.906;2023-02-12T12:28:21;4.82;;;4.53;;
57573;SDS011;63722;48.858;21.906;2023-02-12T12:47:06;5.03;;;4.82;;
57573;SDS011;63722;48.858;21.906;2023-02-12T12:49:47;4.95;;;4.55;;
57573;SDS011;63722;48.858;21.906;2023-02-12T13:00:36;4.88;;;4.68;;
57573;SDS011;63722;48.858;21.906;2023-02-12T13:14:13;4.78;;;4.57;;
57573;SDS011;63722;48.858;21.906;2023-02-12T13:16:45;4.68;;;4.47;;
57573;SDS011;63722;48.858;21.906;2023-02-12T13:25:05;4.70;;;4.50;;
57573;SDS011;63722;48.858;21.906;2023-02-12T13:27:36;4.72;;;4.53;;
57573;SDS011;63722;48.858;21.906;2023-02-12T13:30:06;4.50;;;4.30;;
57573;SDS011;63722;48.858;21.906;2023-02-12T13:32:36;4.63;;;4.43;;
57573;SDS011;63722;48.858;21.906;2023-02-12T13:35:27;4.50;;;4.30;;
57573;SDS011;63722;48.858;21.906;2023-02-12T13:37:54;4.85;;;4.60;;
57573;SDS011;63722;48.858;21.906;2023-02-12T13:40:22;4.57;;;4.38;;
57573;SDS011;63722;48.858;21.906;2023-02-12T13:51:00;4.35;;;4.15;;
57573;SDS011;63722;48.858;21.906;2023-02-12T13:58:45;3.70;;;3.60;;
57573;SDS011;63722;48.858;21.906;2023-02-12T14:04:12;4.43;;;4.22;;
57573;SDS011;63722;48.858;21.906;2023-02-12T14:07:05;4.35;;;4.10;;
57573;SDS011;63722;48.858;21.906;2023-02-12T14:09:37;4.03;;;3.83;;
57573;SDS011;63722;48.858;21.906;2023-02-12T14:12:07;4.00;;;3.80;;
57573;SDS011;63722;48.858;21.906;2023-02-12T14:27:54;4.10;;;3.80;;
57573;SDS011;63722;48.858;21.906;2023-02-12T14:30:44;4.13;;;3.92;;
57573;SDS011;63722;48.858;21.906;2023-02-12T14:33:17;4.00;;;3.80;;
57573;SDS011;63722;48.858;21.906;2023-02-12T14:35:46;4.03;;;3.83;;
57573;SDS011;63722;48.858;21.906;2023-02-12T14:40:40;3.85;;;3.55;;
57573;SDS011;63722;48.858;21.906;2023-02-12T14:45:54;4.32;;;4.13;;
57573;SDS011;63722;48.858;21.906;2023-02-12T14:53:51;3.40;;;3.20;;
57573;SDS011;63722;48.858;21.906;2023-02-12T14:56:22;3.75;;;3.55;;
57573;SDS011;63722;48.858;21.906;2023-02-12T14:58:48;4.05;;;3.85;;
57573;SDS011;63722;48.858;21.906;2023-02-12T15:01:16;3.50;;;3.35;;
57573;SDS011;63722;48.858;21.906;2023-02-12T15:03:51;3.40;;;3.28;;
57573;SDS011;63722;48.858;21.906;2023-02-12T15:06:19;4.07;;;3.88;;
57573;SDS011;63722;48.858;21.906;2023-02-12T15:08:52;3.92;;;3.72;;
57573;SDS011;63722;48.858;21.906;2023-02-12T15:22:26;3.92;;;3.72;;
57573;SDS011;63722;48.858;21.906;2023-02-12T15:27:55;3.67;;;3.53;;
57573;SDS011;63722;48.858;21.906;2023-02-12T15:30:24;3.92;;;3.72;;
57573;SDS011;63722;48.858;21.906;2023-02-12T15:32:53;3.33;;;3.13;;
57573;SDS011;63722;48.858;21.906;2023-02-12T15:35:28;3.33;;;3.15;;
57573;SDS011;63722;48.858;21.906;2023-02-12T15:37:55;3.75;;;3.55;;
57573;SDS011;63722;48.858;21.906;2023-02-12T15:40:24;3.97;;;3.78;;
57573;SDS011;63722;48.858;21.906;2023-02-12T15:43:39;3.75;;;3.55;;
57573;SDS011;63722;48.858;21.906;2023-02-12T15:45:48;3.33;;;3.13;;
57573;SDS011;63722;48.858;21.906;2023-02-12T15:48:18;3.45;;;3.25;;
57573;SDS011;63722;48.858;21.906;2023-02-12T15:53:13;3.75;;;3.55;;
57573;SDS011;63722;48.858;21.906;2023-02-12T15:55:41;3.83;;;3.63;;
57573;SDS011;63722;48.858;21.906;2023-02-12T16:00:59;3.55;;;3.38;;
57573;SDS011;63722;48.858;21.906;2023-02-12T16:03:27;3.25;;;3.15;;
57573;SDS011;63722;48.858;21.906;2023-02-12T16:05:58;3.35;;;3.17;;
57573;SDS011;63722;48.858;21.906;2023-02-12T16:08:27;3.60;;;3.40;;
57573;SDS011;63722;48.858;21.906;2023-02-12T16:10:54;3.15;;;3.05;;
57573;SDS011;63722;48.858;21.906;2023-02-12T16:13:28;3.70;;;3.50;;
57573;SDS011;63722;48.858;21.906;2023-02-12T16:16:34;3.20;;;3.10;;
57573;SDS011;63722;48.858;21.906;2023-02-12T16:21:40;3.63;;;3.42;;
57573;SDS011;63722;48.858;21.906;2023-02-12T16:24:12;3.38;;;3.20;;
57573;SDS011;63722;48.858;21.906;2023-02-12T16:26:46;3.35;;;3.22;;
57573;SDS011;63722;48.858;21.906;2023-02-12T16:29:14;3.50;;;3.30;;
57573;SDS011;63722;48.858;21.906;2023-02-12T16:31:51;3.78;;;3.47;;
57573;SDS011;63722;48.858;21.906;2023-02-12T16:34:26;3.70;;;3.50;;
57573;SDS011;63722;48.858;21.906;2023-02-12T16:36:59;3.72;;;3.53;;
57573;SDS011;63722;48.858;21.906;2023-02-12T16:42:24;3.03;;;2.92;;
57573;SDS011;63722;48.858;21.906;2023-02-12T16:44:53;3.30;;;3.20;;
57573;SDS011;63722;48.858;21.906;2023-02-12T16:47:22;3.38;;;3.17;;
57573;SDS011;63722;48.858;21.906;2023-02-12T16:49:58;2.83;;;2.72;;
57573;SDS011;63722;48.858;21.906;2023-02-12T16:55:14;3.10;;;3.00;;
57573;SDS011;63722;48.858;21.906;2023-02-12T16:57:42;3.22;;;3.10;;
57573;SDS011;63722;48.858;21.906;2023-02-12T17:00:08;3.13;;;3.00;;
57573;SDS011;63722;48.858;21.906;2023-02-12T17:02:39;3.10;;;3.00;;
57573;SDS011;63722;48.858;21.906;2023-02-12T17:05:04;3.25;;;3.15;;
57573;SDS011;63722;48.858;21.906;2023-02-12T17:07:31;2.95;;;2.85;;
57573;SDS011;63722;48.858;21.906;2023-02-12T17:09:58;3.03;;;2.92;;
57573;SDS011;63722;48.858;21.906;2023-02-12T17:12:24;3.50;;;3.30;;
57573;SDS011;63722;48.858;21.906;2023-02-12T17:14:50;3.20;;;3.00;;
57573;SDS011;63722;48.858;21.906;2023-02-12T17:17:16;3.20;;;3.10;;
57573;SDS011;63722;48.858;21.906;2023-02-12T17:19:41;2.90;;;2.80;;
57573;SDS011;63722;48.858;21.906;2023-02-12T17:22:07;3.20;;;3.00;;
57573;SDS011;63722;48.858;21.906;2023-02-12T17:24:42;3.35;;;3.15;;
57573;SDS011;63722;48.858;21.906;2023-02-12T17:27:07;3.28;;;3.17;;
57573;SDS011;63722;48.858;21.906;2023-02-12T17:29:35;3.10;;;3.00;;
57573;SDS011;63722;48.858;21.906;2023-02-12T17:32:01;3.05;;;2.95;;
57573;SDS011;63722;48.858;21.906;2023-02-12T17:34:26;3.55;;;3.35;;
57573;SDS011;63722;48.858;21.906;2023-02-12T17:36:51;3.30;;;3.10;;
57573;SDS011;63722;48.858;21.906;2023-02-12T17:39:17;3.17;;;2.97;;
57573;SDS011;63722;48.858;21.906;2023-02-12T17:41:43;2.90;;;2.80;;
57573;SDS011;63722;48.858;21.906;2023-02-12T17:44:09;3.30;;;3.10;;
57573;SDS011;63722;48.858;21.906;2023-02-12T17:46:37;2.80;;;2.70;;
57573;SDS011;63722;48.858;21.906;2023-02-12T17:49:02;2.58;;;2.47;;
57573;SDS011;63722;48.858;21.906;2023-02-12T17:51:28;2.90;;;2.80;;
57573;SDS011;63722;48.858;21.906;2023-02-12T17:53:54;3.10;;;3.00;;
57573;SDS011;63722;48.858;21.906;2023-02-12T17:56:20;2.85;;;2.72;;
57573;SDS011;63722;48.858;21.906;2023-02-12T17:58:49;2.85;;;2.75;;
57573;SDS011;63722;48.858;21.906;2023-02-12T18:01:16;2.97;;;2.83;;
57573;SDS011;63722;48.858;21.906;2023-02-12T18:03:43;2.50;;;2.40;;
57573;SDS011;63722;48.858;21.906;2023-02-12T18:06:08;2.65;;;2.55;;
57573;SDS011;63722;48.858;21.906;2023-02-12T18:08:38;2.60;;;2.50;;
57573;SDS011;63722;48.858;21.906;2023-02-12T18:11:04;3.13;;;2.95;;
57573;SDS011;63722;48.858;21.906;2023-02-12T18:13:30;3.25;;;3.08;;
57573;SDS011;63722;48.858;21.906;2023-02-12T18:15:56;2.70;;;2.60;;
57573;SDS011;63722;48.858;21.906;2023-02-12T18:18:21;3.20;;;2.97;;
57573;SDS011;63722;48.858;21.906;2023-02-12T18:20:47;2.88;;;2.78;;
57573;SDS011;63722;48.858;21.906;2023-02-12T18:23:12;2.75;;;2.65;;
57573;SDS011;63722;48.858;21.906;2023-02-12T18:25:41;2.97;;;2.88;;